Terminal Aerodrome Forecast
Issued by NWS Riverton, WY

Home | Current Version | Previous Version | Text Only | Print | Product List | Glossary On
Versions: 1 2 3 4 5 6 7 8 9 10 11 12 13 14 15 16 17
010
FTUS45 KRIW 262332
TAFRIW
TAF
KRIW 262332Z 2700/2724 02011KT P6SM VCSH SCT080 BKN150
     FM270200 03007KT P6SM SCT100
     FM270700 32007KT P6SM SKC
     FM271700 VRB04KT P6SM SKC
     FM271900 24010G18KT P6SM SKC=

USA.gov is the U.S. government's official web portal to all federal, state and local government web resources and services.